sensor_id;sensor_type;location;lat;lon;timestamp;P1;durP1;ratioP1;P2;durP2;ratioP2
51529;SDS011;37613;51.788;21.582;2022-08-19T00:01:30;16.70;;;11.50;;
51529;SDS011;37613;51.788;21.582;2022-08-19T00:05:34;15.50;;;10.80;;
51529;SDS011;37613;51.788;21.582;2022-08-19T00:09:37;16.60;;;11.90;;
51529;SDS011;37613;51.788;21.582;2022-08-19T00:13:39;17.10;;;11.50;;
51529;SDS011;37613;51.788;21.582;2022-08-19T00:17:42;19.70;;;11.80;;
51529;SDS011;37613;51.788;21.582;2022-08-19T00:21:45;16.80;;;12.90;;
51529;SDS011;37613;51.788;21.582;2022-08-19T00:25:47;18.80;;;12.60;;
51529;SDS011;37613;51.788;21.582;2022-08-19T00:29:49;20.20;;;12.50;;
51529;SDS011;37613;51.788;21.582;2022-08-19T00:37:53;17.80;;;13.30;;
51529;SDS011;37613;51.788;21.582;2022-08-19T00:41:55;14.20;;;12.20;;
51529;SDS011;37613;51.788;21.582;2022-08-19T00:45:58;16.10;;;12.20;;
51529;SDS011;37613;51.788;21.582;2022-08-19T00:50:00;15.70;;;12.80;;
51529;SDS011;37613;51.788;21.582;2022-08-19T00:54:02;17.40;;;12.70;;
51529;SDS011;37613;51.788;21.582;2022-08-19T00:58:09;19.60;;;12.90;;
51529;SDS011;37613;51.788;21.582;2022-08-19T01:02:15;18.50;;;13.30;;
51529;SDS011;37613;51.788;21.582;2022-08-19T01:06:18;20.20;;;14.00;;
51529;SDS011;37613;51.788;21.582;2022-08-19T01:10:21;22.10;;;13.20;;
51529;SDS011;37613;51.788;21.582;2022-08-19T01:14:26;22.80;;;13.70;;
51529;SDS011;37613;51.788;21.582;2022-08-19T01:18:29;27.70;;;14.20;;
51529;SDS011;37613;51.788;21.582;2022-08-19T01:22:44;19.50;;;13.40;;
51529;SDS011;37613;51.788;21.582;2022-08-19T01:26:49;16.80;;;13.10;;
51529;SDS011;37613;51.788;21.582;2022-08-19T01:30:52;16.80;;;13.40;;
51529;SDS011;37613;51.788;21.582;2022-08-19T01:34:55;20.50;;;13.80;;
51529;SDS011;37613;51.788;21.582;2022-08-19T01:38:57;20.60;;;14.10;;
51529;SDS011;37613;51.788;21.582;2022-08-19T01:43:01;16.10;;;13.70;;
51529;SDS011;37613;51.788;21.582;2022-08-19T01:47:04;18.60;;;13.00;;
51529;SDS011;37613;51.788;21.582;2022-08-19T01:51:08;23.00;;;13.10;;
51529;SDS011;37613;51.788;21.582;2022-08-19T01:55:12;19.70;;;13.20;;
51529;SDS011;37613;51.788;21.582;2022-08-19T01:59:17;15.30;;;13.30;;
51529;SDS011;37613;51.788;21.582;2022-08-19T02:03:22;16.70;;;12.40;;
51529;SDS011;37613;51.788;21.582;2022-08-19T02:07:24;15.60;;;12.60;;
51529;SDS011;37613;51.788;21.582;2022-08-19T02:11:32;18.20;;;13.50;;
51529;SDS011;37613;51.788;21.582;2022-08-19T02:15:35;15.40;;;13.00;;
51529;SDS011;37613;51.788;21.582;2022-08-19T02:19:38;18.00;;;13.70;;
51529;SDS011;37613;51.788;21.582;2022-08-19T02:23:42;17.60;;;14.10;;
51529;SDS011;37613;51.788;21.582;2022-08-19T02:27:44;16.80;;;13.10;;
51529;SDS011;37613;51.788;21.582;2022-08-19T02:31:46;16.50;;;14.00;;
51529;SDS011;37613;51.788;21.582;2022-08-19T02:35:48;16.20;;;13.40;;
51529;SDS011;37613;51.788;21.582;2022-08-19T02:39:50;18.30;;;14.50;;
51529;SDS011;37613;51.788;21.582;2022-08-19T02:43:51;17.80;;;13.60;;
51529;SDS011;37613;51.788;21.582;2022-08-19T02:47:53;19.10;;;13.20;;
51529;SDS011;37613;51.788;21.582;2022-08-19T02:51:56;19.40;;;12.90;;
51529;SDS011;37613;51.788;21.582;2022-08-19T02:55:57;18.00;;;14.00;;
51529;SDS011;37613;51.788;21.582;2022-08-19T03:00:00;23.90;;;13.90;;
51529;SDS011;37613;51.788;21.582;2022-08-19T03:04:03;17.30;;;13.00;;
51529;SDS011;37613;51.788;21.582;2022-08-19T03:08:08;15.50;;;12.90;;
51529;SDS011;37613;51.788;21.582;2022-08-19T03:12:13;16.40;;;13.70;;
51529;SDS011;37613;51.788;21.582;2022-08-19T03:16:15;17.00;;;13.90;;
51529;SDS011;37613;51.788;21.582;2022-08-19T03:20:18;17.80;;;12.60;;
51529;SDS011;37613;51.788;21.582;2022-08-19T03:24:20;21.80;;;13.60;;
51529;SDS011;37613;51.788;21.582;2022-08-19T03:28:23;18.20;;;13.50;;
51529;SDS011;37613;51.788;21.582;2022-08-19T03:32:25;17.20;;;13.80;;
51529;SDS011;37613;51.788;21.582;2022-08-19T03:36:27;16.30;;;13.40;;
51529;SDS011;37613;51.788;21.582;2022-08-19T03:40:29;20.20;;;14.20;;
51529;SDS011;37613;51.788;21.582;2022-08-19T03:48:39;20.70;;;13.70;;
51529;SDS011;37613;51.788;21.582;2022-08-19T03:52:47;17.70;;;13.10;;
51529;SDS011;37613;51.788;21.582;2022-08-19T03:56:51;21.10;;;13.60;;
51529;SDS011;37613;51.788;21.582;2022-08-19T04:00:55;16.40;;;13.90;;
51529;SDS011;37613;51.788;21.582;2022-08-19T04:08:59;15.90;;;12.90;;
51529;SDS011;37613;51.788;21.582;2022-08-19T04:13:04;22.10;;;12.70;;
51529;SDS011;37613;51.788;21.582;2022-08-19T04:17:07;14.80;;;12.20;;
51529;SDS011;37613;51.788;21.582;2022-08-19T04:21:14;16.80;;;11.30;;
51529;SDS011;37613;51.788;21.582;2022-08-19T04:25:18;13.10;;;10.60;;
51529;SDS011;37613;51.788;21.582;2022-08-19T04:29:21;14.70;;;10.40;;
51529;SDS011;37613;51.788;21.582;2022-08-19T04:33:26;14.60;;;10.30;;
51529;SDS011;37613;51.788;21.582;2022-08-19T04:37:29;15.60;;;10.60;;
51529;SDS011;37613;51.788;21.582;2022-08-19T04:41:35;11.50;;;9.20;;
51529;SDS011;37613;51.788;21.582;2022-08-19T04:45:56;13.40;;;9.30;;
51529;SDS011;37613;51.788;21.582;2022-08-19T04:49:58;11.40;;;9.10;;
51529;SDS011;37613;51.788;21.582;2022-08-19T04:54:03;11.90;;;8.70;;
51529;SDS011;37613;51.788;21.582;2022-08-19T04:58:05;10.70;;;7.90;;
51529;SDS011;37613;51.788;21.582;2022-08-19T05:02:08;10.80;;;7.90;;
51529;SDS011;37613;51.788;21.582;2022-08-19T05:06:13;9.50;;;8.00;;
51529;SDS011;37613;51.788;21.582;2022-08-19T05:10:17;8.70;;;7.00;;
51529;SDS011;37613;51.788;21.582;2022-08-19T05:18:22;12.20;;;7.00;;
51529;SDS011;37613;51.788;21.582;2022-08-19T05:22:53;7.60;;;6.20;;
51529;SDS011;37613;51.788;21.582;2022-08-19T05:26:55;8.70;;;6.40;;
51529;SDS011;37613;51.788;21.582;2022-08-19T05:30:58;10.10;;;6.20;;
51529;SDS011;37613;51.788;21.582;2022-08-19T05:35:00;9.60;;;6.80;;
51529;SDS011;37613;51.788;21.582;2022-08-19T05:39:02;10.80;;;6.10;;
51529;SDS011;37613;51.788;21.582;2022-08-19T05:43:06;9.30;;;6.00;;
51529;SDS011;37613;51.788;21.582;2022-08-19T05:47:10;8.40;;;6.10;;
51529;SDS011;37613;51.788;21.582;2022-08-19T05:51:13;9.40;;;6.20;;
51529;SDS011;37613;51.788;21.582;2022-08-19T05:55:15;8.40;;;6.10;;
51529;SDS011;37613;51.788;21.582;2022-08-19T05:59:17;7.70;;;5.80;;
51529;SDS011;37613;51.788;21.582;2022-08-19T06:03:22;11.70;;;5.30;;
51529;SDS011;37613;51.788;21.582;2022-08-19T06:07:24;5.60;;;4.80;;
51529;SDS011;37613;51.788;21.582;2022-08-19T06:15:36;10.40;;;5.40;;
51529;SDS011;37613;51.788;21.582;2022-08-19T06:19:38;7.40;;;6.40;;
51529;SDS011;37613;51.788;21.582;2022-08-19T06:23:42;9.20;;;6.30;;
51529;SDS011;37613;51.788;21.582;2022-08-19T06:27:44;8.70;;;6.80;;
51529;SDS011;37613;51.788;21.582;2022-08-19T06:31:47;17.50;;;11.50;;
51529;SDS011;37613;51.788;21.582;2022-08-19T06:35:50;12.10;;;7.60;;
51529;SDS011;37613;51.788;21.582;2022-08-19T06:45:08;10.20;;;7.10;;
51529;SDS011;37613;51.788;21.582;2022-08-19T06:49:11;12.80;;;7.10;;
51529;SDS011;37613;51.788;21.582;2022-08-19T06:53:15;13.50;;;6.90;;
51529;SDS011;37613;51.788;21.582;2022-08-19T06:57:19;9.00;;;7.10;;
51529;SDS011;37613;51.788;21.582;2022-08-19T07:01:20;12.90;;;6.50;;
51529;SDS011;37613;51.788;21.582;2022-08-19T07:05:22;10.70;;;6.40;;
51529;SDS011;37613;51.788;21.582;2022-08-19T07:09:25;10.00;;;6.90;;
51529;SDS011;37613;51.788;21.582;2022-08-19T07:13:27;10.70;;;6.60;;
51529;SDS011;37613;51.788;21.582;2022-08-19T07:17:29;10.90;;;5.70;;
51529;SDS011;37613;51.788;21.582;2022-08-19T07:21:32;7.20;;;5.50;;
51529;SDS011;37613;51.788;21.582;2022-08-19T07:25:35;14.70;;;6.10;;
51529;SDS011;37613;51.788;21.582;2022-08-19T07:29:38;10.40;;;6.00;;
51529;SDS011;37613;51.788;21.582;2022-08-19T07:33:40;10.00;;;5.60;;
51529;SDS011;37613;51.788;21.582;2022-08-19T07:37:44;13.50;;;6.10;;
51529;SDS011;37613;51.788;21.582;2022-08-19T07:41:47;13.70;;;6.50;;
51529;SDS011;37613;51.788;21.582;2022-08-19T07:45:52;6.80;;;6.00;;
51529;SDS011;37613;51.788;21.582;2022-08-19T07:49:58;9.70;;;5.80;;
51529;SDS011;37613;51.788;21.582;2022-08-19T07:54:00;9.60;;;5.70;;
51529;SDS011;37613;51.788;21.582;2022-08-19T07:58:02;7.40;;;5.10;;
51529;SDS011;37613;51.788;21.582;2022-08-19T08:02:06;8.70;;;5.00;;
51529;SDS011;37613;51.788;21.582;2022-08-19T08:06:09;7.60;;;5.90;;
51529;SDS011;37613;51.788;21.582;2022-08-19T08:10:30;9.60;;;6.60;;
51529;SDS011;37613;51.788;21.582;2022-08-19T08:14:35;8.30;;;5.40;;
51529;SDS011;37613;51.788;21.582;2022-08-19T08:18:43;9.90;;;4.90;;
51529;SDS011;37613;51.788;21.582;2022-08-19T08:22:46;11.90;;;4.80;;
51529;SDS011;37613;51.788;21.582;2022-08-19T08:27:07;14.00;;;5.50;;
51529;SDS011;37613;51.788;21.582;2022-08-19T08:31:09;8.40;;;5.20;;
51529;SDS011;37613;51.788;21.582;2022-08-19T08:35:13;8.10;;;5.90;;
51529;SDS011;37613;51.788;21.582;2022-08-19T08:39:19;8.30;;;5.70;;
51529;SDS011;37613;51.788;21.582;2022-08-19T08:47:36;8.80;;;5.70;;
51529;SDS011;37613;51.788;21.582;2022-08-19T08:51:47;12.40;;;5.70;;
51529;SDS011;37613;51.788;21.582;2022-08-19T08:55:54;7.80;;;5.50;;
51529;SDS011;37613;51.788;21.582;2022-08-19T08:59:56;8.40;;;5.30;;
51529;SDS011;37613;51.788;21.582;2022-08-19T09:04:05;14.40;;;6.50;;
51529;SDS011;37613;51.788;21.582;2022-08-19T09:08:10;10.20;;;6.20;;
51529;SDS011;37613;51.788;21.582;2022-08-19T09:12:25;7.30;;;5.70;;
51529;SDS011;37613;51.788;21.582;2022-08-19T09:16:28;11.30;;;5.70;;
51529;SDS011;37613;51.788;21.582;2022-08-19T09:20:31;8.30;;;5.80;;
51529;SDS011;37613;51.788;21.582;2022-08-19T09:24:33;10.90;;;5.50;;
51529;SDS011;37613;51.788;21.582;2022-08-19T09:28:37;18.00;;;5.60;;
51529;SDS011;37613;51.788;21.582;2022-08-19T09:32:38;9.60;;;5.50;;
51529;SDS011;37613;51.788;21.582;2022-08-19T09:36:42;8.30;;;5.40;;
51529;SDS011;37613;51.788;21.582;2022-08-19T09:40:44;7.70;;;5.10;;
51529;SDS011;37613;51.788;21.582;2022-08-19T09:44:46;7.90;;;4.80;;
51529;SDS011;37613;51.788;21.582;2022-08-19T09:48:48;16.20;;;5.00;;
51529;SDS011;37613;51.788;21.582;2022-08-19T09:52:52;9.20;;;5.30;;
51529;SDS011;37613;51.788;21.582;2022-08-19T09:56:55;10.50;;;5.20;;
51529;SDS011;37613;51.788;21.582;2022-08-19T10:01:01;10.70;;;5.20;;
51529;SDS011;37613;51.788;21.582;2022-08-19T10:05:05;8.80;;;4.80;;
51529;SDS011;37613;51.788;21.582;2022-08-19T10:09:26;8.60;;;5.30;;
51529;SDS011;37613;51.788;21.582;2022-08-19T10:13:29;11.60;;;5.40;;
51529;SDS011;37613;51.788;21.582;2022-08-19T10:17:33;7.90;;;5.00;;
51529;SDS011;37613;51.788;21.582;2022-08-19T10:21:36;8.70;;;5.70;;
51529;SDS011;37613;51.788;21.582;2022-08-19T10:25:38;8.40;;;5.20;;
51529;SDS011;37613;51.788;21.582;2022-08-19T10:29:40;11.40;;;5.30;;
51529;SDS011;37613;51.788;21.582;2022-08-19T10:33:42;8.80;;;5.10;;
51529;SDS011;37613;51.788;21.582;2022-08-19T10:37:44;9.10;;;5.20;;
51529;SDS011;37613;51.788;21.582;2022-08-19T10:41:46;8.00;;;4.90;;
51529;SDS011;37613;51.788;21.582;2022-08-19T10:45:51;8.10;;;5.20;;
51529;SDS011;37613;51.788;21.582;2022-08-19T10:49:56;10.50;;;6.20;;
51529;SDS011;37613;51.788;21.582;2022-08-19T10:54:17;7.90;;;4.80;;
51529;SDS011;37613;51.788;21.582;2022-08-19T10:58:19;7.10;;;4.80;;
51529;SDS011;37613;51.788;21.582;2022-08-19T11:02:27;11.90;;;5.70;;
51529;SDS011;37613;51.788;21.582;2022-08-19T11:06:33;16.50;;;9.20;;
51529;SDS011;37613;51.788;21.582;2022-08-19T11:10:35;6.80;;;6.20;;
51529;SDS011;37613;51.788;21.582;2022-08-19T11:14:37;10.90;;;5.70;;
51529;SDS011;37613;51.788;21.582;2022-08-19T11:18:40;13.50;;;4.50;;
51529;SDS011;37613;51.788;21.582;2022-08-19T11:22:45;12.10;;;5.30;;
51529;SDS011;37613;51.788;21.582;2022-08-19T11:26:48;7.60;;;4.50;;
51529;SDS011;37613;51.788;21.582;2022-08-19T11:30:51;6.90;;;4.50;;
51529;SDS011;37613;51.788;21.582;2022-08-19T11:34:53;6.80;;;4.20;;
51529;SDS011;37613;51.788;21.582;2022-08-19T11:38:55;5.90;;;4.10;;
51529;SDS011;37613;51.788;21.582;2022-08-19T11:42:57;9.40;;;4.00;;
51529;SDS011;37613;51.788;21.582;2022-08-19T11:46:59;8.10;;;4.40;;
51529;SDS011;37613;51.788;21.582;2022-08-19T11:51:06;9.30;;;4.10;;
51529;SDS011;37613;51.788;21.582;2022-08-19T11:55:13;12.60;;;3.90;;
51529;SDS011;37613;51.788;21.582;2022-08-19T11:59:15;6.60;;;4.40;;
51529;SDS011;37613;51.788;21.582;2022-08-19T12:03:17;10.10;;;4.30;;
51529;SDS011;37613;51.788;21.582;2022-08-19T12:07:20;6.10;;;4.10;;
51529;SDS011;37613;51.788;21.582;2022-08-19T12:11:22;7.40;;;4.00;;
51529;SDS011;37613;51.788;21.582;2022-08-19T12:15:25;10.00;;;3.90;;
51529;SDS011;37613;51.788;21.582;2022-08-19T12:19:29;3.60;;;3.20;;
51529;SDS011;37613;51.788;21.582;2022-08-19T12:23:31;7.40;;;3.30;;
51529;SDS011;37613;51.788;21.582;2022-08-19T12:27:33;13.80;;;3.90;;
51529;SDS011;37613;51.788;21.582;2022-08-19T12:31:36;6.10;;;3.90;;
51529;SDS011;37613;51.788;21.582;2022-08-19T12:35:41;4.80;;;4.00;;
51529;SDS011;37613;51.788;21.582;2022-08-19T12:39:45;8.70;;;4.00;;
51529;SDS011;37613;51.788;21.582;2022-08-19T12:43:48;9.00;;;4.10;;
51529;SDS011;37613;51.788;21.582;2022-08-19T12:47:51;9.20;;;3.70;;
51529;SDS011;37613;51.788;21.582;2022-08-19T12:51:54;8.10;;;3.20;;
51529;SDS011;37613;51.788;21.582;2022-08-19T12:55:57;14.10;;;3.40;;
51529;SDS011;37613;51.788;21.582;2022-08-19T13:00:03;6.70;;;3.20;;
51529;SDS011;37613;51.788;21.582;2022-08-19T13:04:15;10.80;;;3.40;;
51529;SDS011;37613;51.788;21.582;2022-08-19T13:08:17;8.00;;;3.20;;
51529;SDS011;37613;51.788;21.582;2022-08-19T13:12:19;7.60;;;3.20;;
51529;SDS011;37613;51.788;21.582;2022-08-19T13:16:22;6.20;;;3.50;;
51529;SDS011;37613;51.788;21.582;2022-08-19T13:20:24;9.80;;;3.20;;
51529;SDS011;37613;51.788;21.582;2022-08-19T13:24:27;9.60;;;2.90;;
51529;SDS011;37613;51.788;21.582;2022-08-19T13:28:29;6.50;;;3.30;;
51529;SDS011;37613;51.788;21.582;2022-08-19T13:32:51;7.80;;;3.40;;
51529;SDS011;37613;51.788;21.582;2022-08-19T13:37:12;8.60;;;3.80;;
51529;SDS011;37613;51.788;21.582;2022-08-19T13:41:14;6.00;;;3.70;;
51529;SDS011;37613;51.788;21.582;2022-08-19T13:45:17;6.70;;;3.30;;
51529;SDS011;37613;51.788;21.582;2022-08-19T13:49:21;6.60;;;3.80;;
51529;SDS011;37613;51.788;21.582;2022-08-19T13:53:24;8.60;;;3.30;;
51529;SDS011;37613;51.788;21.582;2022-08-19T13:57:26;5.20;;;3.70;;
51529;SDS011;37613;51.788;21.582;2022-08-19T14:01:28;9.30;;;4.10;;
51529;SDS011;37613;51.788;21.582;2022-08-19T14:05:31;7.10;;;3.90;;
51529;SDS011;37613;51.788;21.582;2022-08-19T14:09:34;9.80;;;3.50;;
51529;SDS011;37613;51.788;21.582;2022-08-19T14:13:36;9.90;;;3.90;;
51529;SDS011;37613;51.788;21.582;2022-08-19T14:17:39;8.20;;;3.20;;
51529;SDS011;37613;51.788;21.582;2022-08-19T14:21:42;9.40;;;3.70;;
51529;SDS011;37613;51.788;21.582;2022-08-19T14:25:44;6.80;;;4.10;;
51529;SDS011;37613;51.788;21.582;2022-08-19T14:29:45;9.20;;;4.70;;
51529;SDS011;37613;51.788;21.582;2022-08-19T14:33:47;9.80;;;3.20;;
51529;SDS011;37613;51.788;21.582;2022-08-19T14:37:51;7.80;;;4.60;;
51529;SDS011;37613;51.788;21.582;2022-08-19T14:41:56;5.80;;;3.80;;
51529;SDS011;37613;51.788;21.582;2022-08-19T14:46:00;6.10;;;4.00;;
51529;SDS011;37613;51.788;21.582;2022-08-19T14:55:19;5.00;;;3.30;;
51529;SDS011;37613;51.788;21.582;2022-08-19T14:59:21;6.20;;;4.10;;
51529;SDS011;37613;51.788;21.582;2022-08-19T15:03:23;7.70;;;4.00;;
51529;SDS011;37613;51.788;21.582;2022-08-19T15:07:25;12.50;;;4.00;;
51529;SDS011;37613;51.788;21.582;2022-08-19T15:11:27;15.10;;;9.40;;
51529;SDS011;37613;51.788;21.582;2022-08-19T15:15:30;7.50;;;4.10;;
51529;SDS011;37613;51.788;21.582;2022-08-19T15:19:32;5.20;;;3.50;;
51529;SDS011;37613;51.788;21.582;2022-08-19T15:23:36;11.40;;;4.60;;
51529;SDS011;37613;51.788;21.582;2022-08-19T15:27:38;7.00;;;4.00;;
51529;SDS011;37613;51.788;21.582;2022-08-19T15:31:41;7.50;;;3.80;;
51529;SDS011;37613;51.788;21.582;2022-08-19T15:35:43;12.30;;;6.40;;
51529;SDS011;37613;51.788;21.582;2022-08-19T15:39:45;6.60;;;3.90;;
51529;SDS011;37613;51.788;21.582;2022-08-19T15:43:48;6.10;;;3.50;;
51529;SDS011;37613;51.788;21.582;2022-08-19T15:48:02;8.70;;;3.60;;
51529;SDS011;37613;51.788;21.582;2022-08-19T15:52:05;5.80;;;4.00;;
51529;SDS011;37613;51.788;21.582;2022-08-19T15:56:08;12.50;;;3.70;;
51529;SDS011;37613;51.788;21.582;2022-08-19T16:00:10;7.10;;;3.80;;
51529;SDS011;37613;51.788;21.582;2022-08-19T16:04:31;5.10;;;3.60;;
51529;SDS011;37613;51.788;21.582;2022-08-19T16:09:02;6.60;;;3.50;;
51529;SDS011;37613;51.788;21.582;2022-08-19T16:13:04;6.00;;;3.90;;
51529;SDS011;37613;51.788;21.582;2022-08-19T16:17:06;8.60;;;3.80;;
51529;SDS011;37613;51.788;21.582;2022-08-19T16:21:12;4.50;;;3.90;;
51529;SDS011;37613;51.788;21.582;2022-08-19T16:25:17;4.10;;;3.10;;
51529;SDS011;37613;51.788;21.582;2022-08-19T16:29:19;8.50;;;3.50;;
51529;SDS011;37613;51.788;21.582;2022-08-19T16:33:23;15.10;;;4.00;;
51529;SDS011;37613;51.788;21.582;2022-08-19T16:37:24;9.30;;;3.80;;
51529;SDS011;37613;51.788;21.582;2022-08-19T16:41:27;13.10;;;3.70;;
51529;SDS011;37613;51.788;21.582;2022-08-19T16:45:29;7.60;;;4.00;;
51529;SDS011;37613;51.788;21.582;2022-08-19T16:49:31;4.70;;;3.40;;
51529;SDS011;37613;51.788;21.582;2022-08-19T16:53:35;7.80;;;3.60;;
51529;SDS011;37613;51.788;21.582;2022-08-19T16:57:38;7.70;;;3.20;;
51529;SDS011;37613;51.788;21.582;2022-08-19T17:01:41;7.20;;;3.70;;
51529;SDS011;37613;51.788;21.582;2022-08-19T17:05:44;7.70;;;4.60;;
51529;SDS011;37613;51.788;21.582;2022-08-19T17:09:48;13.70;;;7.60;;
51529;SDS011;37613;51.788;21.582;2022-08-19T17:13:51;12.90;;;5.50;;
51529;SDS011;37613;51.788;21.582;2022-08-19T17:17:58;8.40;;;4.30;;
51529;SDS011;37613;51.788;21.582;2022-08-19T17:22:00;9.40;;;5.60;;
51529;SDS011;37613;51.788;21.582;2022-08-19T17:26:02;6.40;;;4.00;;
51529;SDS011;37613;51.788;21.582;2022-08-19T17:30:05;6.30;;;3.60;;
51529;SDS011;37613;51.788;21.582;2022-08-19T17:34:08;11.90;;;4.60;;
51529;SDS011;37613;51.788;21.582;2022-08-19T17:38:11;9.60;;;4.10;;
51529;SDS011;37613;51.788;21.582;2022-08-19T17:42:23;8.30;;;4.90;;
51529;SDS011;37613;51.788;21.582;2022-08-19T17:46:25;5.90;;;3.80;;
51529;SDS011;37613;51.788;21.582;2022-08-19T17:50:28;8.60;;;3.80;;
51529;SDS011;37613;51.788;21.582;2022-08-19T17:54:30;7.50;;;4.50;;
51529;SDS011;37613;51.788;21.582;2022-08-19T17:58:32;6.40;;;3.90;;
51529;SDS011;37613;51.788;21.582;2022-08-19T18:06:43;7.40;;;3.40;;
51529;SDS011;37613;51.788;21.582;2022-08-19T18:10:45;6.20;;;4.60;;
51529;SDS011;37613;51.788;21.582;2022-08-19T18:14:47;10.50;;;5.40;;
51529;SDS011;37613;51.788;21.582;2022-08-19T18:22:51;13.90;;;7.70;;
51529;SDS011;37613;51.788;21.582;2022-08-19T18:26:52;10.30;;;5.40;;
51529;SDS011;37613;51.788;21.582;2022-08-19T18:34:58;8.00;;;4.50;;
51529;SDS011;37613;51.788;21.582;2022-08-19T18:39:02;10.00;;;4.30;;
51529;SDS011;37613;51.788;21.582;2022-08-19T18:43:24;10.00;;;3.80;;
51529;SDS011;37613;51.788;21.582;2022-08-19T18:47:44;11.90;;;4.40;;
51529;SDS011;37613;51.788;21.582;2022-08-19T18:52:05;14.60;;;4.40;;
51529;SDS011;37613;51.788;21.582;2022-08-19T19:00:11;5.10;;;3.90;;
51529;SDS011;37613;51.788;21.582;2022-08-19T19:04:14;6.40;;;3.00;;
51529;SDS011;37613;51.788;21.582;2022-08-19T19:08:18;6.60;;;3.40;;
51529;SDS011;37613;51.788;21.582;2022-08-19T19:12:20;6.90;;;3.70;;
51529;SDS011;37613;51.788;21.582;2022-08-19T19:16:29;5.50;;;3.70;;
51529;SDS011;37613;51.788;21.582;2022-08-19T19:20:32;8.40;;;4.00;;
51529;SDS011;37613;51.788;21.582;2022-08-19T19:24:34;10.10;;;3.70;;
51529;SDS011;37613;51.788;21.582;2022-08-19T19:28:38;7.70;;;3.50;;
51529;SDS011;37613;51.788;21.582;2022-08-19T19:32:45;7.80;;;4.00;;
51529;SDS011;37613;51.788;21.582;2022-08-19T19:40:50;11.80;;;4.10;;
51529;SDS011;37613;51.788;21.582;2022-08-19T19:44:53;8.70;;;3.50;;
51529;SDS011;37613;51.788;21.582;2022-08-19T19:48:56;10.30;;;3.90;;
51529;SDS011;37613;51.788;21.582;2022-08-19T19:52:58;9.00;;;4.00;;
51529;SDS011;37613;51.788;21.582;2022-08-19T19:56:59;14.20;;;4.70;;
51529;SDS011;37613;51.788;21.582;2022-08-19T20:01:02;15.40;;;4.50;;
51529;SDS011;37613;51.788;21.582;2022-08-19T20:05:07;19.30;;;5.60;;
51529;SDS011;37613;51.788;21.582;2022-08-19T20:09:11;15.20;;;5.80;;
51529;SDS011;37613;51.788;21.582;2022-08-19T20:13:16;16.10;;;5.20;;
51529;SDS011;37613;51.788;21.582;2022-08-19T20:17:17;18.00;;;4.30;;
51529;SDS011;37613;51.788;21.582;2022-08-19T20:21:21;9.00;;;3.80;;
51529;SDS011;37613;51.788;21.582;2022-08-19T20:25:23;10.80;;;3.80;;
51529;SDS011;37613;51.788;21.582;2022-08-19T20:29:25;9.30;;;4.20;;
51529;SDS011;37613;51.788;21.582;2022-08-19T20:33:28;9.40;;;3.40;;
51529;SDS011;37613;51.788;21.582;2022-08-19T20:37:31;8.70;;;3.80;;
51529;SDS011;37613;51.788;21.582;2022-08-19T20:41:33;10.10;;;3.40;;
51529;SDS011;37613;51.788;21.582;2022-08-19T20:45:36;5.10;;;3.20;;
51529;SDS011;37613;51.788;21.582;2022-08-19T20:49:38;11.80;;;4.00;;
51529;SDS011;37613;51.788;21.582;2022-08-19T20:53:40;12.50;;;3.70;;
51529;SDS011;37613;51.788;21.582;2022-08-19T20:57:43;12.40;;;4.10;;
51529;SDS011;37613;51.788;21.582;2022-08-19T21:01:47;7.10;;;3.40;;
51529;SDS011;37613;51.788;21.582;2022-08-19T21:05:52;5.00;;;3.10;;
51529;SDS011;37613;51.788;21.582;2022-08-19T21:09:54;6.50;;;3.10;;
51529;SDS011;37613;51.788;21.582;2022-08-19T21:13:57;6.20;;;3.80;;
51529;SDS011;37613;51.788;21.582;2022-08-19T21:17:59;8.90;;;3.90;;
51529;SDS011;37613;51.788;21.582;2022-08-19T21:22:01;6.10;;;3.30;;
51529;SDS011;37613;51.788;21.582;2022-08-19T21:26:03;7.10;;;3.40;;
51529;SDS011;37613;51.788;21.582;2022-08-19T21:30:06;6.80;;;3.30;;
51529;SDS011;37613;51.788;21.582;2022-08-19T21:34:09;8.40;;;3.90;;
51529;SDS011;37613;51.788;21.582;2022-08-19T21:38:11;8.70;;;3.40;;
51529;SDS011;37613;51.788;21.582;2022-08-19T21:42:12;9.10;;;4.70;;
51529;SDS011;37613;51.788;21.582;2022-08-19T21:46:14;8.80;;;4.10;;
51529;SDS011;37613;51.788;21.582;2022-08-19T21:50:16;9.20;;;4.70;;
51529;SDS011;37613;51.788;21.582;2022-08-19T21:54:19;8.40;;;4.60;;
51529;SDS011;37613;51.788;21.582;2022-08-19T21:58:21;8.00;;;5.00;;
51529;SDS011;37613;51.788;21.582;2022-08-19T22:06:25;9.70;;;4.60;;
51529;SDS011;37613;51.788;21.582;2022-08-19T22:10:29;14.60;;;4.40;;
51529;SDS011;37613;51.788;21.582;2022-08-19T22:14:32;9.30;;;4.30;;
51529;SDS011;37613;51.788;21.582;2022-08-19T22:18:34;10.00;;;3.80;;
51529;SDS011;37613;51.788;21.582;2022-08-19T22:22:37;12.60;;;4.30;;
51529;SDS011;37613;51.788;21.582;2022-08-19T22:26:40;11.60;;;4.10;;
51529;SDS011;37613;51.788;21.582;2022-08-19T22:30:43;8.50;;;4.70;;
51529;SDS011;37613;51.788;21.582;2022-08-19T22:34:47;10.00;;;3.90;;
51529;SDS011;37613;51.788;21.582;2022-08-19T22:38:48;8.10;;;3.70;;
51529;SDS011;37613;51.788;21.582;2022-08-19T22:43:00;10.90;;;4.30;;
51529;SDS011;37613;51.788;21.582;2022-08-19T22:47:04;11.90;;;4.50;;
51529;SDS011;37613;51.788;21.582;2022-08-19T22:51:06;11.30;;;4.90;;
51529;SDS011;37613;51.788;21.582;2022-08-19T22:55:27;12.40;;;4.00;;
51529;SDS011;37613;51.788;21.582;2022-08-19T22:59:31;8.00;;;3.80;;
51529;SDS011;37613;51.788;21.582;2022-08-19T23:09:04;6.30;;;3.70;;
51529;SDS011;37613;51.788;21.582;2022-08-19T23:13:07;9.10;;;4.50;;
51529;SDS011;37613;51.788;21.582;2022-08-19T23:17:09;12.10;;;4.30;;
51529;SDS011;37613;51.788;21.582;2022-08-19T23:21:11;9.30;;;3.70;;
51529;SDS011;37613;51.788;21.582;2022-08-19T23:25:15;7.90;;;4.30;;
51529;SDS011;37613;51.788;21.582;2022-08-19T23:29:20;8.20;;;4.20;;
51529;SDS011;37613;51.788;21.582;2022-08-19T23:33:41;9.50;;;4.20;;
51529;SDS011;37613;51.788;21.582;2022-08-19T23:37:44;10.00;;;4.40;;
51529;SDS011;37613;51.788;21.582;2022-08-19T23:41:46;9.60;;;4.50;;
51529;SDS011;37613;51.788;21.582;2022-08-19T23:45:47;9.60;;;5.00;;
51529;SDS011;37613;51.788;21.582;2022-08-19T23:49:50;13.00;;;4.40;;
51529;SDS011;37613;51.788;21.582;2022-08-19T23:53:51;9.40;;;4.00;;
51529;SDS011;37613;51.788;21.582;2022-08-19T23:57:54;7.50;;;4.30;;
